createdAt,value
2022-12-18T00:01:37.163Z,14.68
2022-12-18T00:04:05.923Z,13.90
2022-12-18T00:06:33.679Z,12.43
2022-12-18T00:09:01.294Z,12.27
2022-12-18T00:11:30.070Z,12.00
2022-12-18T00:14:01.703Z,12.98
2022-12-18T00:16:31.219Z,13.85
2022-12-18T00:19:00.674Z,12.30
2022-12-18T00:21:28.876Z,13.25
2022-12-18T00:23:55.606Z,12.83
2022-12-18T00:26:28.162Z,12.70
2022-12-18T00:28:56.518Z,12.35
2022-12-18T00:31:24.854Z,14.32
2022-12-18T00:33:55.282Z,13.45
2022-12-18T00:36:28.058Z,14.50
2022-12-18T00:38:56.372Z,13.27
2022-12-18T00:50:51.425Z,13.47
2022-12-18T00:53:18.442Z,13.93
2022-12-18T00:55:46.653Z,12.80
2022-12-18T00:58:15.008Z,12.38
2022-12-18T01:00:41.882Z,14.00
2022-12-18T01:03:08.513Z,12.90
2022-12-18T01:05:34.957Z,12.00
2022-12-18T01:08:01.417Z,12.02
2022-12-18T01:10:27.893Z,12.13
2022-12-18T01:12:54.369Z,12.50
2022-12-18T01:15:21.476Z,12.00
2022-12-18T01:17:47.998Z,12.80
2022-12-18T01:20:14.907Z,13.07
2022-12-18T01:22:41.575Z,12.50
2022-12-18T01:25:09.693Z,13.27
2022-12-18T01:27:36.109Z,12.33
2022-12-18T01:30:02.827Z,13.68
2022-12-18T01:32:31.687Z,14.18
2022-12-18T01:34:58.285Z,12.43
2022-12-18T01:37:24.849Z,13.40
2022-12-18T01:39:53.339Z,11.60
2022-12-18T01:42:19.834Z,12.98
2022-12-18T01:45:07.909Z,14.25
2022-12-18T01:47:39.703Z,12.32
2022-12-18T01:50:22.625Z,12.75
2022-12-18T01:53:01.021Z,13.10
2022-12-18T01:55:31.740Z,12.88
2022-12-18T01:58:00.332Z,12.20
2022-12-18T02:00:27.862Z,12.70
2022-12-18T02:02:55.149Z,13.35
2022-12-18T02:05:39.901Z,13.97
2022-12-18T02:08:34.743Z,13.65
2022-12-18T02:11:11.655Z,12.32
2022-12-18T02:13:53.235Z,12.48
2022-12-18T02:17:06.377Z,12.35
2022-12-18T02:19:57.315Z,12.57
2022-12-18T02:22:42.918Z,12.52
2022-12-18T02:25:34.475Z,12.00
2022-12-18T02:28:06.808Z,13.45
2022-12-18T02:30:37.124Z,13.10
2022-12-18T02:33:07.866Z,11.80
2022-12-18T02:35:36.239Z,12.65
2022-12-18T02:38:05.152Z,11.18
2022-12-18T02:40:32.796Z,14.40
2022-12-18T02:43:14.069Z,14.98
2022-12-18T02:45:57.581Z,11.80
2022-12-18T02:48:30.697Z,11.80
2022-12-18T02:51:24.773Z,11.48
2022-12-18T02:54:11.703Z,12.40
2022-12-18T02:56:51.484Z,12.15
2022-12-18T02:59:32.817Z,12.97
2022-12-18T03:02:07.489Z,12.55
2022-12-18T03:05:01.928Z,12.48
2022-12-18T03:07:39.054Z,12.73
2022-12-18T03:10:09.703Z,12.52
2022-12-18T03:12:40.869Z,12.33
2022-12-18T03:15:21.646Z,12.45
2022-12-18T03:17:56.047Z,11.85
2022-12-18T03:20:26.602Z,13.13
2022-12-18T03:22:59.945Z,11.98
2022-12-18T03:25:28.744Z,11.70
2022-12-18T03:27:58.772Z,11.05
2022-12-18T03:30:29.551Z,11.13
2022-12-18T03:33:30.130Z,11.15
2022-12-18T03:35:57.126Z,11.60
2022-12-18T03:38:24.115Z,12.17
2022-12-18T03:41:14.092Z,11.13
2022-12-18T03:44:18.158Z,12.20
2022-12-18T03:46:50.519Z,10.80
2022-12-18T03:49:35.502Z,12.52
2022-12-18T03:52:15.336Z,9.93
2022-12-18T03:54:45.927Z,12.20
2022-12-18T03:57:25.792Z,10.98
2022-12-18T03:59:57.897Z,11.05
2022-12-18T04:02:25.918Z,10.25
2022-12-18T04:05:00.584Z,10.07
2022-12-18T04:07:28.038Z,10.43
2022-12-18T04:09:57.441Z,9.77
2022-12-18T04:12:27.459Z,11.05
2022-12-18T04:14:53.964Z,10.27
2022-12-18T04:17:21.007Z,11.00
2022-12-18T04:19:47.658Z,10.57
2022-12-18T04:22:14.205Z,10.60
2022-12-18T04:24:40.720Z,9.73
2022-12-18T04:27:07.333Z,10.15
2022-12-18T04:29:33.989Z,7.43
2022-12-18T04:32:00.607Z,9.50
2022-12-18T04:34:27.734Z,8.40
2022-12-18T04:36:54.299Z,9.25
2022-12-18T04:39:20.878Z,8.05
2022-12-18T04:41:47.435Z,9.67
2022-12-18T04:44:14.534Z,7.15
2022-12-18T04:46:41.236Z,8.60
2022-12-18T04:49:07.691Z,7.88
2022-12-18T04:51:34.264Z,8.35
2022-12-18T04:54:00.858Z,8.37
2022-12-18T04:56:27.383Z,7.00
2022-12-18T04:58:53.861Z,9.25
2022-12-18T05:01:20.751Z,7.75
2022-12-18T05:03:47.494Z,7.78
2022-12-18T05:06:14.043Z,7.10
2022-12-18T05:08:40.687Z,7.20
2022-12-18T05:11:14.977Z,6.65
2022-12-18T05:13:43.625Z,7.63
2022-12-18T05:16:10.304Z,8.68
2022-12-18T05:18:37.178Z,6.67
2022-12-18T05:21:04.547Z,6.50
2022-12-18T05:23:31.135Z,7.38
2022-12-18T05:25:59.699Z,8.57
2022-12-18T05:28:29.766Z,7.03
2022-12-18T05:30:59.646Z,7.20
2022-12-18T05:33:29.599Z,7.25
2022-12-18T05:35:58.838Z,7.32
2022-12-18T05:38:27.061Z,6.72
2022-12-18T05:40:54.441Z,6.97
2022-12-18T05:43:25.342Z,7.63
2022-12-18T05:45:52.809Z,6.40
2022-12-18T05:48:19.905Z,6.38
2022-12-18T05:50:48.442Z,6.43
2022-12-18T05:53:17.241Z,7.68
2022-12-18T05:55:44.861Z,7.13
2022-12-18T05:58:12.776Z,5.90
2022-12-18T06:00:42.520Z,6.30
2022-12-18T06:03:11.008Z,5.72
2022-12-18T06:05:42.579Z,7.22
2022-12-18T06:08:09.968Z,6.03
2022-12-18T06:10:36.538Z,5.63
2022-12-18T06:13:03.128Z,6.53
2022-12-18T06:15:29.590Z,5.65
2022-12-18T06:17:56.009Z,6.07
2022-12-18T06:20:22.986Z,7.00
2022-12-18T06:22:49.525Z,6.72
2022-12-18T06:25:16.446Z,6.47
2022-12-18T06:27:43.036Z,6.22
2022-12-18T06:30:11.450Z,6.30
2022-12-18T06:32:38.020Z,7.30
2022-12-18T06:35:04.948Z,6.45
2022-12-18T06:37:32.663Z,5.93
2022-12-18T06:39:59.237Z,6.53
2022-12-18T06:42:26.122Z,6.60
2022-12-18T06:44:52.702Z,6.50
2022-12-18T06:47:19.532Z,5.85
2022-12-18T06:49:45.960Z,7.07
2022-12-18T06:52:12.511Z,6.07
2022-12-18T06:54:38.971Z,6.88
2022-12-18T06:57:05.354Z,6.23
2022-12-18T06:59:32.053Z,7.20
2022-12-18T07:01:58.656Z,6.13
2022-12-18T07:04:30.693Z,6.93
2022-12-18T07:06:57.243Z,6.15
2022-12-18T07:09:24.171Z,6.50
2022-12-18T07:11:51.076Z,6.10
2022-12-18T07:14:17.520Z,6.88
2022-12-18T07:16:44.096Z,6.60
2022-12-18T07:19:10.695Z,6.22
2022-12-18T07:21:37.274Z,8.40
2022-12-18T07:24:04.598Z,7.72
2022-12-18T07:26:31.526Z,6.47
2022-12-18T07:28:58.851Z,6.75
2022-12-18T07:31:26.802Z,6.90
2022-12-18T07:33:54.573Z,6.43
2022-12-18T07:36:22.130Z,5.75
2022-12-18T07:38:49.932Z,6.63
2022-12-18T07:41:17.300Z,6.47
2022-12-18T07:43:44.421Z,5.82
2022-12-18T07:46:14.676Z,7.17
2022-12-18T07:48:42.993Z,5.95
2022-12-18T07:51:11.300Z,6.18
2022-12-18T07:53:38.249Z,6.07
2022-12-18T07:58:55.165Z,6.33
2022-12-18T08:01:21.767Z,8.18
2022-12-18T08:03:48.487Z,6.95
2022-12-18T08:06:16.386Z,5.70
2022-12-18T08:08:43.227Z,7.03
2022-12-18T08:11:09.782Z,6.27
2022-12-18T08:13:36.441Z,19.95
2022-12-18T08:16:08.280Z,12.07
2022-12-18T08:18:37.741Z,8.48
2022-12-18T08:21:23.737Z,5.35
2022-12-18T08:23:51.902Z,5.90
2022-12-18T08:26:19.172Z,6.13
2022-12-18T08:28:47.606Z,5.75
2022-12-18T08:31:14.822Z,6.22
2022-12-18T08:33:43.819Z,6.65
2022-12-18T08:36:13.678Z,5.53
2022-12-18T08:38:40.314Z,5.50
2022-12-18T08:41:11.178Z,5.32
2022-12-18T08:43:57.743Z,5.80
2022-12-18T08:46:27.970Z,5.22
2022-12-18T08:48:56.847Z,5.90
2022-12-18T08:51:26.375Z,5.05
2022-12-18T08:53:52.974Z,6.43
2022-12-18T08:56:20.715Z,4.65
2022-12-18T08:58:47.593Z,6.07
2022-12-18T09:01:16.219Z,5.83
2022-12-18T09:03:44.217Z,6.45
2022-12-18T09:06:16.749Z,5.35
2022-12-18T09:08:45.083Z,5.32
2022-12-18T09:11:24.158Z,6.53
2022-12-18T09:13:51.618Z,6.13
2022-12-18T09:16:20.535Z,5.47
2022-12-18T09:18:47.728Z,6.18
2022-12-18T09:21:17.349Z,6.22
2022-12-18T09:23:45.641Z,6.35
2022-12-18T09:26:12.246Z,6.00
2022-12-18T09:28:39.313Z,6.03
2022-12-18T09:31:11.691Z,6.88
2022-12-18T09:33:40.052Z,6.50
2022-12-18T09:36:11.278Z,6.78
2022-12-18T09:38:38.317Z,5.77
2022-12-18T09:41:36.030Z,6.85
2022-12-18T09:44:19.271Z,7.50
2022-12-18T09:46:55.257Z,5.78
2022-12-18T09:49:27.242Z,5.90
2022-12-18T09:52:02.004Z,5.77
2022-12-18T09:55:03.098Z,6.10
2022-12-18T09:57:33.382Z,5.65
2022-12-18T10:00:19.375Z,5.25
2022-12-18T10:02:49.360Z,5.60
2022-12-18T10:05:35.278Z,5.17
2022-12-18T10:08:40.801Z,5.32
2022-12-18T10:11:35.616Z,5.43
2022-12-18T10:14:07.097Z,5.10
2022-12-18T10:16:49.542Z,5.10
2022-12-18T10:19:34.540Z,5.13
2022-12-18T10:22:04.095Z,4.93
2022-12-18T10:24:35.731Z,4.18
2022-12-18T10:27:16.452Z,5.20
2022-12-18T10:29:47.178Z,5.35
2022-12-18T10:32:22.526Z,5.20
2022-12-18T10:34:56.672Z,4.93
2022-12-18T10:37:29.403Z,5.20
2022-12-18T10:40:18.469Z,5.15
2022-12-18T10:43:09.457Z,4.93
2022-12-18T10:45:36.289Z,4.90
2022-12-18T10:48:04.337Z,4.57
2022-12-18T10:51:09.061Z,5.13
2022-12-18T10:53:28.719Z,4.75
2022-12-18T10:56:01.664Z,4.10
2022-12-18T10:58:33.151Z,3.73
2022-12-18T11:01:16.834Z,4.78
2022-12-18T11:04:02.729Z,4.97
2022-12-18T11:06:30.251Z,4.70
2022-12-18T11:09:20.409Z,4.93
2022-12-18T11:11:53.360Z,4.80
2022-12-18T11:14:33.958Z,4.95
2022-12-18T11:20:04.288Z,5.05
2022-12-18T11:22:34.499Z,4.97
2022-12-18T11:28:27.833Z,4.07
2022-12-18T11:31:16.431Z,4.65
2022-12-18T11:34:31.257Z,4.47
2022-12-18T11:37:06.405Z,4.72
2022-12-18T11:39:39.562Z,5.60
2022-12-18T11:42:21.125Z,4.43
2022-12-18T11:44:59.460Z,4.63
2022-12-18T11:47:54.690Z,4.60
2022-12-18T11:50:56.725Z,4.97
2022-12-18T11:53:26.563Z,4.60
2022-12-18T11:56:27.589Z,4.32
2022-12-18T11:59:51.799Z,4.50
2022-12-18T12:03:00.932Z,4.18
2022-12-18T12:05:39.278Z,4.10
2022-12-18T12:08:50.199Z,4.73
2022-12-18T12:11:54.913Z,4.18
2022-12-18T12:14:39.551Z,5.57
2022-12-18T12:17:44.302Z,3.95
2022-12-18T12:20:33.579Z,4.72
2022-12-18T12:23:06.853Z,4.10
2022-12-18T12:25:54.805Z,5.70
2022-12-18T12:28:48.276Z,5.28
2022-12-18T12:31:38.109Z,4.88
2022-12-18T12:34:19.287Z,4.63
2022-12-18T12:37:07.441Z,4.97
2022-12-18T12:39:38.180Z,5.43
2022-12-18T12:42:31.043Z,5.28
2022-12-18T12:45:02.574Z,4.53
2022-12-18T12:47:33.827Z,5.55
2022-12-18T12:50:07.969Z,4.67
2022-12-18T12:52:40.769Z,5.22
2022-12-18T12:55:18.702Z,4.57
2022-12-18T12:58:12.777Z,5.32
2022-12-18T13:00:52.035Z,4.85
2022-12-18T13:03:27.992Z,4.93
2022-12-18T13:06:01.280Z,6.05
2022-12-18T13:08:33.340Z,5.00
2022-12-18T13:11:22.577Z,5.45
2022-12-18T13:13:57.322Z,6.78
2022-12-18T13:16:28.178Z,5.00
2022-12-18T13:18:59.737Z,5.40
2022-12-18T13:21:34.649Z,5.53
2022-12-18T13:24:36.702Z,5.80
2022-12-18T13:27:45.984Z,5.18
2022-12-18T13:30:47.618Z,5.00
2022-12-18T13:33:20.761Z,5.72
2022-12-18T13:35:48.390Z,5.40
2022-12-18T13:38:31.831Z,5.38
2022-12-18T13:41:03.500Z,5.57
2022-12-18T13:43:50.979Z,5.93
2022-12-18T13:46:30.042Z,5.95
2022-12-18T13:49:20.107Z,6.00
2022-12-18T13:51:56.293Z,5.45
2022-12-18T13:54:41.254Z,5.05
2022-12-18T13:57:26.204Z,5.87
2022-12-18T13:59:53.156Z,5.43
2022-12-18T14:02:29.672Z,5.25
2022-12-18T14:04:56.831Z,5.90
2022-12-18T14:07:27.092Z,6.07
2022-12-18T14:12:57.418Z,5.13
2022-12-18T14:15:27.025Z,4.57
2022-12-18T14:18:15.174Z,5.45
2022-12-18T14:20:49.227Z,5.75
2022-12-18T14:23:48.655Z,5.73
2022-12-18T14:26:29.999Z,5.10
2022-12-18T14:28:59.026Z,5.38
2022-12-18T14:31:28.029Z,4.85
2022-12-18T14:33:55.154Z,6.85
2022-12-18T14:36:24.875Z,6.07
2022-12-18T14:38:58.468Z,6.00
2022-12-18T14:41:26.328Z,4.88
2022-12-18T14:43:55.121Z,5.30
2022-12-18T14:46:37.838Z,5.68
2022-12-18T14:49:18.853Z,5.60
2022-12-18T14:51:51.846Z,5.35
2022-12-18T14:54:20.879Z,5.80
2022-12-18T14:56:51.862Z,5.38
2022-12-18T14:59:24.795Z,5.75
2022-12-18T15:02:05.981Z,6.10
2022-12-18T15:04:40.278Z,6.18
2022-12-18T15:07:18.490Z,5.68
2022-12-18T15:10:01.431Z,5.75
2022-12-18T15:12:36.983Z,4.97
2022-12-18T15:15:04.810Z,5.80
2022-12-18T15:17:31.924Z,5.55
2022-12-18T15:20:04.823Z,5.97
2022-12-18T15:22:35.638Z,6.68
2022-12-18T15:25:04.584Z,7.13
2022-12-18T15:27:38.805Z,6.53
2022-12-18T15:30:11.375Z,6.20
2022-12-18T15:32:39.271Z,6.15
2022-12-18T15:35:11.858Z,4.10
2022-12-18T15:37:39.910Z,5.88
2022-12-18T15:40:09.324Z,6.97
2022-12-18T15:42:54.425Z,5.72
2022-12-18T15:45:20.936Z,5.88
2022-12-18T15:47:49.910Z,6.88
2022-12-18T15:50:16.435Z,6.20
2022-12-18T15:52:46.675Z,6.17
2022-12-18T15:55:33.209Z,6.13
2022-12-18T15:57:59.597Z,6.47
2022-12-18T16:00:26.200Z,6.43
2022-12-18T16:02:53.575Z,5.95
2022-12-18T16:05:22.619Z,6.40
2022-12-18T16:07:49.063Z,7.18
2022-12-18T16:10:15.632Z,6.38
2022-12-18T16:12:42.807Z,6.25
2022-12-18T16:15:14.341Z,6.43
2022-12-18T16:17:41.542Z,6.17
2022-12-18T16:20:17.471Z,6.80
2022-12-18T16:22:46.888Z,7.82
2022-12-18T16:25:24.272Z,7.70
2022-12-18T16:27:51.795Z,7.35
2022-12-18T16:30:21.056Z,7.50
2022-12-18T16:32:47.796Z,6.10
2022-12-18T16:35:16.512Z,6.78
2022-12-18T16:37:43.674Z,7.13
2022-12-18T16:40:13.042Z,7.68
2022-12-18T16:42:40.976Z,7.00
2022-12-18T16:45:09.570Z,7.40
2022-12-18T16:47:36.289Z,7.70
2022-12-18T16:50:02.859Z,6.60
2022-12-18T16:52:30.273Z,7.15
2022-12-18T16:54:57.292Z,8.60
2022-12-18T16:57:25.429Z,7.03
2022-12-18T16:59:52.800Z,7.32
2022-12-18T17:02:25.664Z,7.45
2022-12-18T17:04:55.144Z,7.45
2022-12-18T17:07:21.752Z,7.10
2022-12-18T17:09:50.200Z,7.05
2022-12-18T17:12:17.545Z,7.53
2022-12-18T17:14:44.053Z,7.55
2022-12-18T17:17:25.891Z,6.65
2022-12-18T17:19:52.820Z,7.50
2022-12-18T17:22:20.398Z,7.50
2022-12-18T17:24:47.836Z,8.35
2022-12-18T17:27:14.923Z,7.72
2022-12-18T17:29:47.335Z,6.90
2022-12-18T17:32:15.188Z,7.10
2022-12-18T17:34:41.755Z,7.30
2022-12-18T17:37:08.560Z,7.63
2022-12-18T17:39:35.028Z,7.55
2022-12-18T17:42:01.506Z,7.50
2022-12-18T17:44:28.065Z,7.40
2022-12-18T17:46:54.555Z,8.00
2022-12-18T17:49:21.559Z,8.43
2022-12-18T17:51:49.042Z,8.45
2022-12-18T17:54:15.642Z,7.43
2022-12-18T17:56:42.193Z,7.77
2022-12-18T17:59:09.262Z,7.88
2022-12-18T18:01:42.400Z,8.40
2022-12-18T18:04:11.109Z,8.60
2022-12-18T18:06:39.255Z,7.97
2022-12-18T18:09:09.982Z,7.73
2022-12-18T18:12:01.839Z,7.72
2022-12-18T18:14:28.577Z,8.23
2022-12-18T18:16:55.344Z,8.55
2022-12-18T18:19:24.647Z,7.68
2022-12-18T18:21:53.215Z,8.63
2022-12-18T18:24:26.196Z,8.55
2022-12-18T18:26:53.323Z,7.93
2022-12-18T18:29:22.723Z,7.50
2022-12-18T18:31:50.060Z,8.48
2022-12-18T18:34:20.113Z,8.43
2022-12-18T18:36:46.822Z,8.93
2022-12-18T18:39:14.240Z,7.68
2022-12-18T18:41:41.011Z,7.63
2022-12-18T18:44:10.791Z,8.45
2022-12-18T18:46:37.636Z,8.97
2022-12-18T18:49:07.500Z,8.25
2022-12-18T18:51:35.208Z,8.35
2022-12-18T18:54:02.024Z,8.38
2022-12-18T18:59:15.695Z,8.20
2022-12-18T19:01:46.537Z,8.23
2022-12-18T19:04:13.095Z,8.15
2022-12-18T19:06:39.886Z,7.07
2022-12-18T19:09:07.357Z,8.23
2022-12-18T19:11:52.592Z,8.37
2022-12-18T19:14:19.241Z,7.82
2022-12-18T19:16:45.925Z,7.88
2022-12-18T19:19:13.380Z,8.20
2022-12-18T19:21:40.291Z,8.05
2022-12-18T19:24:07.239Z,9.03
2022-12-18T19:26:33.688Z,7.35
2022-12-18T19:29:05.571Z,7.10
2022-12-18T19:31:35.983Z,7.32
2022-12-18T19:34:06.798Z,7.75
2022-12-18T19:36:55.244Z,7.70
2022-12-18T19:39:34.117Z,8.13
2022-12-18T19:42:00.597Z,7.88
2022-12-18T19:44:27.242Z,8.55
2022-12-18T19:46:53.925Z,8.02
2022-12-18T19:49:20.614Z,8.40
2022-12-18T19:51:47.937Z,8.38
2022-12-18T19:54:17.818Z,7.93
2022-12-18T19:56:45.798Z,9.05
2022-12-18T19:59:13.366Z,7.55
2022-12-18T20:05:34.667Z,8.18
2022-12-18T20:09:19.325Z,8.02
2022-12-18T20:14:06.221Z,7.95
2022-12-18T20:16:55.112Z,9.50
2022-12-18T20:19:45.560Z,8.30
2022-12-18T20:28:56.435Z,8.82
2022-12-18T20:28:59.496Z,8.80
2022-12-18T20:31:55.138Z,9.55
2022-12-18T20:37:51.967Z,8.00
2022-12-18T21:02:05.694Z,8.80
2022-12-18T21:05:09.496Z,9.77
2022-12-18T21:07:48.971Z,10.77
2022-12-18T21:10:27.433Z,9.35
2022-12-18T21:19:37.940Z,9.90
2022-12-18T21:25:27.727Z,7.82
2022-12-18T21:28:31.087Z,9.15
2022-12-18T21:31:03.983Z,8.75
2022-12-18T21:36:37.521Z,8.63
2022-12-18T22:23:41.895Z,10.00
2022-12-18T22:36:15.317Z,10.13
2022-12-18T22:40:13.042Z,9.77
2022-12-18T22:45:59.336Z,9.55
2022-12-18T22:48:54.750Z,10.32
2022-12-18T23:07:23.319Z,10.23
2022-12-18T23:13:31.127Z,9.63
2022-12-18T23:20:01.826Z,8.77
2022-12-18T23:23:14.338Z,10.70
2022-12-18T23:25:50.848Z,10.15
2022-12-18T23:28:20.278Z,9.67
2022-12-18T23:34:05.193Z,9.25
2022-12-18T23:36:46.278Z,10.90
2022-12-18T23:44:44.221Z,9.60
2022-12-18T23:51:35.614Z,11.10
2022-12-18T23:59:57.387Z,9.90
